Time;durP1;ratioP1;P1;durP2;ratioP2;P2;SDS_P1;SDS_P2;PMS_P1;PMS_P2;Temp;Humidity;BMP_temperature;BMP_pressure;BME280_temperature;BME280_humidity;BME280_pressure;Samples;Min_cycle;Max_cycle;Signal;HPM_P1;HPM_P2
2023/05/06 00:00:25;;;;;;;2.70;1.90;;;;;;;14.28;nan;98161.72;4994336;28;20203;-72
2023/05/06 00:02:52;;;;;;;2.80;2.00;;;;;;;14.29;nan;98157.22;4994276;28;20211;-72
2023/05/06 00:05:18;;;;;;;2.37;2.17;;;;;;;14.28;nan;98161.72;4994129;28;20302;-72
2023/05/06 00:07:45;;;;;;;2.83;1.87;;;;;;;14.26;nan;98158.50;4993965;28;20211;-72
2023/05/06 00:10:12;;;;;;;2.83;1.90;;;;;;;14.21;nan;98162.94;4994068;28;20204;-72
2023/05/06 00:12:41;;;;;;;4.10;2.17;;;;;;;14.21;nan;98160.25;4994130;28;20214;-72
2023/05/06 00:15:08;;;;;;;2.63;1.97;;;;;;;14.22;nan;98162.69;4994063;28;20581;-72
2023/05/06 00:17:35;;;;;;;2.90;1.73;;;;;;;14.15;nan;98158.53;4993758;28;20211;-72
2023/05/06 00:20:02;;;;;;;1.70;1.60;;;;;;;14.14;nan;98157.69;4995185;28;20203;-72
2023/05/06 00:22:28;;;;;;;2.33;1.67;;;;;;;14.17;nan;98162.56;4998768;28;20207;-72
2023/05/06 00:24:55;;;;;;;2.43;2.20;;;;;;;14.26;nan;98157.69;4997961;28;20202;-72
2023/05/06 00:27:21;;;;;;;1.50;1.40;;;;;;;14.27;nan;98157.44;4998096;28;20207;-72
2023/05/06 00:29:48;;;;;;;2.13;1.70;;;;;;;14.33;nan;98158.34;4997955;28;20219;-72
2023/05/06 00:32:14;;;;;;;2.10;1.50;;;;;;;14.29;nan;98160.69;4997988;28;20214;-72
2023/05/06 00:34:41;;;;;;;3.13;2.10;;;;;;;14.36;nan;98152.50;4997562;28;20554;-72
2023/05/06 00:37:07;;;;;;;2.50;2.30;;;;;;;14.40;nan;98151.81;4997732;28;20595;-72
2023/05/06 00:39:34;;;;;;;3.30;1.80;;;;;;;14.32;nan;98159.38;4997842;28;20206;-72
2023/05/06 00:42:01;;;;;;;1.97;1.80;;;;;;;14.36;nan;98165.88;4997780;28;20262;-72
2023/05/06 00:44:29;;;;;;;1.83;1.73;;;;;;;14.28;nan;98163.59;4997775;28;20254;-72
2023/05/06 00:46:56;;;;;;;5.40;2.10;;;;;;;14.33;nan;98164.50;4997751;28;20250;-74
2023/05/06 00:49:23;;;;;;;3.47;2.00;;;;;;;14.23;nan;98158.16;4997426;28;20219;-73
2023/05/06 00:51:51;;;;;;;2.60;1.80;;;;;;;14.18;nan;98142.81;4997939;28;20204;-73
2023/05/06 00:54:18;;;;;;;2.40;1.90;;;;;;;14.14;nan;98152.34;4997775;28;20214;-73
2023/05/06 00:56:45;;;;;;;2.33;2.10;;;;;;;14.08;nan;98153.31;4997734;28;20563;-73
2023/05/06 00:59:11;;;;;;;2.60;2.10;;;;;;;14.03;nan;98147.06;4997857;28;20211;-73
2023/05/06 01:01:38;;;;;;;3.70;2.10;;;;;;;14.07;nan;98151.66;4997678;28;20211;-73
2023/05/06 01:04:06;;;;;;;2.03;1.73;;;;;;;14.01;nan;98144.59;4997441;28;20690;-73
2023/05/06 01:06:45;;;;;;;2.10;1.93;;;;;;;14.01;nan;98155.31;4997848;28;20227;-73
2023/05/06 01:09:22;;;;;;;3.37;2.53;;;;;;;14.12;nan;98159.81;4997298;28;20690;-73
2023/05/06 01:12:17;;;;;;;2.70;2.10;;;;;;;14.08;nan;98153.31;4997906;28;20199;-73
2023/05/06 01:15:05;;;;;;;5.97;2.27;;;;;;;14.12;nan;98149.13;4980162;28;20187;-73
2023/05/06 01:17:35;;;;;;;2.20;2.00;;;;;;;14.18;nan;98150.00;4997277;28;20211;-73
2023/05/06 01:20:03;;;;;;;2.90;2.03;;;;;;;14.15;nan;98153.97;4997241;28;20196;-73
2023/05/06 01:22:30;;;;;;;4.10;2.07;;;;;;;14.15;nan;98153.16;4996953;28;20688;-73
2023/05/06 01:24:58;;;;;;;2.57;1.87;;;;;;;14.13;nan;98153.41;4997130;28;20297;-73
2023/05/06 01:27:24;;;;;;;5.67;2.10;;;;;;;14.07;nan;98148.19;4997245;28;20211;-73
2023/05/06 01:29:51;;;;;;;4.17;2.10;;;;;;;14.05;nan;98145.75;4996551;28;20227;-73
2023/05/06 01:32:37;;;;;;;2.60;1.77;;;;;;;14.13;nan;98144.56;4996650;28;20211;-73
2023/05/06 01:35:16;;;;;;;2.00;1.90;;;;;;;14.06;nan;98147.38;4996872;28;20192;-73
2023/05/06 01:38:00;;;;;;;4.07;2.30;;;;;;;14.04;nan;98148.66;4996533;28;20191;-73
2023/05/06 01:40:29;;;;;;;2.40;1.97;;;;;;;14.06;nan;98152.72;4996914;28;20196;-73
2023/05/06 01:42:56;;;;;;;2.47;1.87;;;;;;;14.01;nan;98146.47;4996944;28;20208;-73
2023/05/06 01:45:28;;;;;;;5.43;2.30;;;;;;;13.92;nan;98148.72;4996388;28;20231;-73
2023/05/06 01:47:55;;;;;;;2.73;2.27;;;;;;;13.95;nan;98161.59;4996407;28;20198;-73
2023/05/06 01:50:22;;;;;;;3.23;1.90;;;;;;;13.99;nan;98157.41;4996358;28;20241;-73
2023/05/06 01:53:02;;;;;;;2.90;2.27;;;;;;;13.94;nan;98165.34;4979271;28;20207;-73
2023/05/06 01:55:29;;;;;;;2.20;2.00;;;;;;;13.88;nan;98160.91;4996524;28;20230;-73
2023/05/06 01:57:56;;;;;;;2.83;2.13;;;;;;;13.89;nan;98172.44;4996500;28;20301;-73
2023/05/06 02:00:25;;;;;;;4.40;2.10;;;;;;;13.88;nan;98158.25;4996581;28;20258;-73
2023/05/06 02:02:51;;;;;;;3.77;2.20;;;;;;;13.86;nan;98160.34;4996528;28;20208;-73
2023/05/06 02:05:18;;;;;;;2.20;2.03;;;;;;;13.86;nan;98152.34;4996378;28;20227;-73
2023/05/06 02:07:44;;;;;;;3.93;2.20;;;;;;;13.92;nan;98156.72;4996318;28;20207;-74
2023/05/06 02:10:11;;;;;;;3.20;2.37;;;;;;;13.98;nan;98154.97;4996307;28;20221;-73
2023/05/06 02:12:37;;;;;;;3.10;2.00;;;;;;;13.94;nan;98149.31;4996170;28;20207;-73
2023/05/06 02:15:04;;;;;;;2.23;2.00;;;;;;;14.02;nan;98151.56;4996060;28;20214;-73
2023/05/06 02:17:30;;;;;;;2.43;2.17;;;;;;;13.95;nan;98145.56;4996119;28;20214;-73
2023/05/06 02:19:56;;;;;;;5.70;2.53;;;;;;;14.00;nan;98148.34;4995628;28;20211;-72
2023/05/06 02:22:23;;;;;;;4.20;2.47;;;;;;;13.99;nan;98157.41;4995502;28;20674;-72
2023/05/06 02:24:49;;;;;;;2.80;2.60;;;;;;;13.88;nan;98163.59;4995504;28;20575;-73
2023/05/06 02:27:16;;;;;;;2.60;2.40;;;;;;;13.86;nan;98157.69;4995556;28;20670;-73
2023/05/06 02:29:42;;;;;;;2.63;2.20;;;;;;;13.87;nan;98155.81;4995726;28;20234;-73
2023/05/06 02:32:08;;;;;;;3.43;2.80;;;;;;;13.87;nan;98156.63;4995734;28;20237;-73
2023/05/06 02:34:35;;;;;;;2.93;2.47;;;;;;;13.85;nan;98145.38;4995704;28;20207;-73
2023/05/06 02:37:01;;;;;;;3.20;2.23;;;;;;;13.83;nan;98152.00;4995266;28;20710;-73
2023/05/06 02:39:27;;;;;;;2.60;2.40;;;;;;;13.81;nan;98151.41;4995369;28;20690;-73
2023/05/06 02:41:54;;;;;;;2.60;2.40;;;;;;;13.85;nan;98152.56;4995107;28;20578;-73
2023/05/06 02:44:20;;;;;;;2.63;2.40;;;;;;;13.84;nan;98141.06;4995004;28;20667;-73
2023/05/06 02:46:46;;;;;;;2.77;2.40;;;;;;;13.79;nan;98156.19;4995455;28;20242;-73
2023/05/06 02:49:13;;;;;;;2.60;2.40;;;;;;;13.77;nan;98144.91;4995433;28;20234;-73
2023/05/06 02:51:39;;;;;;;4.53;2.50;;;;;;;13.73;nan;98136.56;4995417;28;20211;-73
2023/05/06 02:54:05;;;;;;;3.17;2.07;;;;;;;13.74;nan;98132.84;4995368;28;20215;-73
2023/05/06 02:56:32;;;;;;;3.63;2.47;;;;;;;13.71;nan;98138.66;4995296;28;20234;-73
2023/05/06 02:58:58;;;;;;;3.33;2.30;;;;;;;13.73;nan;98138.41;4995201;28;20207;-73
2023/05/06 03:01:24;;;;;;;4.20;2.60;;;;;;;13.73;nan;98136.56;4995163;28;20218;-73
2023/05/06 03:03:51;;;;;;;4.07;2.33;;;;;;;13.65;nan;98139.59;4995147;28;20207;-73
2023/05/06 03:06:17;;;;;;;4.33;2.53;;;;;;;13.63;nan;98141.72;4995230;28;20234;-73
2023/05/06 03:08:43;;;;;;;2.67;2.43;;;;;;;13.67;nan;98147.38;4994785;28;20218;-73
2023/05/06 03:11:10;;;;;;;4.77;2.60;;;;;;;13.66;nan;98146.56;4994757;28;20207;-73
2023/05/06 03:13:36;;;;;;;2.80;2.50;;;;;;;13.64;nan;98143.34;4995093;28;20211;-73
2023/05/06 03:16:02;;;;;;;3.30;2.60;;;;;;;13.64;nan;98145.19;4994614;28;20227;-73
2023/05/06 03:18:29;;;;;;;4.57;2.73;;;;;;;13.65;nan;98150.28;4994623;28;20686;-73
2023/05/06 03:20:55;;;;;;;4.13;2.53;;;;;;;13.66;nan;98151.91;4994571;28;20671;-73
2023/05/06 03:23:22;;;;;;;3.73;2.47;;;;;;;13.61;nan;98137.66;4994849;28;20207;-73
2023/05/06 03:25:48;;;;;;;3.33;2.77;;;;;;;13.56;nan;98135.69;4994748;28;20227;-73
2023/05/06 03:28:14;;;;;;;4.83;2.97;;;;;;;13.57;nan;98134.63;4994805;28;20207;-73
2023/05/06 03:30:41;;;;;;;3.97;2.87;;;;;;;13.61;nan;98145.69;4994656;28;20231;-73
2023/05/06 03:33:07;;;;;;;4.50;2.67;;;;;;;13.58;nan;98143.47;4994654;28;20207;-73
2023/05/06 03:35:33;;;;;;;3.40;2.50;;;;;;;13.53;nan;98146.84;4994501;28;20227;-73
2023/05/06 03:37:59;;;;;;;5.17;2.90;;;;;;;13.55;nan;98150.09;4994447;28;20221;-73
2023/05/06 03:40:26;;;;;;;4.20;2.60;;;;;;;13.59;nan;98139.75;4994494;28;20204;-73
2023/05/06 03:42:52;;;;;;;5.57;2.50;;;;;;;13.57;nan;98142.63;4994163;28;20689;-73
2023/05/06 03:45:19;;;;;;;3.43;2.67;;;;;;;13.52;nan;98129.19;4994297;28;20242;-73
2023/05/06 03:47:45;;;;;;;3.27;2.50;;;;;;;13.53;nan;98128.16;4994414;28;20234;-73
2023/05/06 03:50:11;;;;;;;3.93;2.80;;;;;;;13.52;nan;98134.53;4994283;28;20227;-73
2023/05/06 03:52:38;;;;;;;4.13;2.90;;;;;;;13.52;nan;98131.06;4994833;28;20203;-73
2023/05/06 03:55:05;;;;;;;4.43;2.87;;;;;;;13.45;nan;98133.84;4994105;28;20203;-73
2023/05/06 03:57:31;;;;;;;3.37;3.00;;;;;;;13.45;nan;98115.16;4994737;28;20216;-73
2023/05/06 03:59:57;;;;;;;4.30;2.90;;;;;;;13.42;nan;98126.31;4995127;28;20647;-73
2023/05/06 04:02:24;;;;;;;4.03;3.20;;;;;;;13.32;nan;98123.41;4994059;28;20689;-73
2023/05/06 04:04:50;;;;;;;3.50;3.20;;;;;;;13.31;nan;98132.50;4994083;28;20203;-73
2023/05/06 04:07:17;;;;;;;4.00;3.57;;;;;;;13.23;nan;98129.34;4994111;28;20226;-73
2023/05/06 04:09:43;;;;;;;3.97;3.60;;;;;;;13.20;nan;98130.63;4993742;28;20238;-73
2023/05/06 04:12:09;;;;;;;5.13;3.70;;;;;;;13.11;nan;98132.03;4994163;28;20207;-73
2023/05/06 04:14:36;;;;;;;3.50;3.20;;;;;;;13.10;nan;98138.41;4994190;28;20245;-73
2023/05/06 04:17:02;;;;;;;4.17;3.80;;;;;;;13.07;nan;98132.72;4994052;28;20235;-73
2023/05/06 04:19:28;;;;;;;4.57;3.47;;;;;;;13.03;nan;98137.69;4994183;28;20326;-73
2023/05/06 04:21:55;;;;;;;5.53;3.90;;;;;;;12.97;nan;98133.31;4994005;28;20214;-73
2023/05/06 04:24:21;;;;;;;4.30;3.90;;;;;;;13.03;nan;98136.91;4993660;28;20693;-73
2023/05/06 04:26:48;;;;;;;4.40;3.60;;;;;;;13.03;nan;98132.38;4994039;28;20594;-73
2023/05/06 04:29:14;;;;;;;5.23;3.80;;;;;;;12.94;nan;98135.59;4993994;28;20223;-73
2023/05/06 04:31:40;;;;;;;4.70;4.23;;;;;;;13.03;nan;98145.72;4994057;28;20222;-73
2023/05/06 04:34:09;;;;;;;6.27;4.50;;;;;;;12.99;nan;98141.06;4993894;28;20203;-73
2023/05/06 04:36:36;;;;;;;5.50;3.93;;;;;;;13.06;nan;98141.78;4993838;28;20589;-73
2023/05/06 04:39:07;;;;;;;4.60;4.20;;;;;;;13.06;nan;98145.25;4993942;28;20578;-73
2023/05/06 04:41:33;;;;;;;4.90;3.87;;;;;;;13.02;nan;98151.31;4993954;28;20200;-73
2023/05/06 04:44:00;;;;;;;7.13;4.50;;;;;;;13.11;nan;98152.59;4993598;28;20218;-73
2023/05/06 04:46:26;;;;;;;4.00;3.57;;;;;;;13.10;nan;98151.75;4993806;28;20729;-73
2023/05/06 04:48:53;;;;;;;4.77;4.23;;;;;;;13.13;nan;98156.63;4993561;28;20681;-73
2023/05/06 04:51:20;;;;;;;4.67;4.10;;;;;;;13.19;nan;98157.53;4993726;28;20228;-73
2023/05/06 04:53:46;;;;;;;5.77;4.50;;;;;;;13.24;nan;98163.81;4993522;28;20662;-74
2023/05/06 04:56:12;;;;;;;4.87;4.47;;;;;;;13.41;nan;98164.75;4993442;28;20238;-74
2023/05/06 04:58:39;;;;;;;4.53;4.13;;;;;;;13.53;nan;98165.56;4993750;28;20224;-74
2023/05/06 05:01:08;;;;;;;4.27;3.93;;;;;;;13.71;nan;98164.56;4993772;28;20571;-74
2023/05/06 05:03:35;;;;;;;4.73;3.83;;;;;;;13.82;nan;98167.22;4993767;28;20214;-74
2023/05/06 05:06:01;;;;;;;4.03;3.30;;;;;;;13.82;nan;98167.22;4994933;28;20234;-74
2023/05/06 05:08:27;;;;;;;4.87;3.37;;;;;;;13.81;nan;98165.59;4997035;28;20215;-74
2023/05/06 05:10:54;;;;;;;3.47;3.10;;;;;;;13.83;nan;98174.19;4997051;28;20227;-74
2023/05/06 05:13:20;;;;;;;3.40;3.17;;;;;;;13.83;nan;98181.41;4996832;28;20301;-74
2023/05/06 05:15:47;;;;;;;3.23;2.93;;;;;;;13.80;nan;98179.19;4997087;28;20226;-74
2023/05/06 05:18:13;;;;;;;3.57;3.27;;;;;;;13.91;nan;98181.84;4996929;28;20211;-74
2023/05/06 05:20:39;;;;;;;3.37;3.07;;;;;;;13.97;nan;98180.88;4997154;28;20591;-74
2023/05/06 05:23:06;;;;;;;3.83;2.97;;;;;;;14.07;nan;98183.75;4996613;28;20647;-74
2023/05/06 05:25:32;;;;;;;3.07;2.77;;;;;;;14.17;nan;98181.28;4996451;28;20710;-74
2023/05/06 05:27:58;;;;;;;3.70;2.80;;;;;;;14.17;nan;98178.63;4996858;28;20575;-74
2023/05/06 05:30:25;;;;;;;6.67;2.70;;;;;;;14.13;nan;98188.16;4996423;28;20219;-74
2023/05/06 05:32:51;;;;;;;3.43;2.70;;;;;;;14.23;nan;98192.91;4996826;28;20208;-74
2023/05/06 05:35:17;;;;;;;3.50;2.80;;;;;;;14.33;nan;98198.47;4996649;28;20234;-74
2023/05/06 05:37:44;;;;;;;3.70;2.50;;;;;;;14.51;nan;98201.75;4996537;28;20211;-74
2023/05/06 05:40:10;;;;;;;2.57;2.20;;;;;;;14.51;nan;98207.09;4996339;28;20211;-74
2023/05/06 05:42:37;;;;;;;4.20;2.43;;;;;;;14.62;nan;98198.22;4996195;28;20666;-74
2023/05/06 05:45:03;;;;;;;4.03;2.10;;;;;;;14.60;nan;98208.31;4996120;28;20217;-74
2023/05/06 05:47:30;;;;;;;3.00;2.27;;;;;;;14.88;nan;98208.28;4996518;28;20623;-74
2023/05/06 05:49:56;;;;;;;3.87;2.20;;;;;;;14.85;nan;98206.09;4996466;28;20226;-74
2023/05/06 05:52:22;;;;;;;3.60;2.20;;;;;;;14.75;nan;98197.88;4996471;28;20556;-74
2023/05/06 05:54:49;;;;;;;2.43;1.90;;;;;;;14.75;nan;98197.88;4996401;28;20217;-74
2023/05/06 05:57:15;;;;;;;3.60;2.40;;;;;;;14.85;nan;98200.75;4995992;28;20709;-74
2023/05/06 05:59:42;;;;;;;4.53;2.23;;;;;;;14.96;nan;98201.72;4996303;28;20207;-74
2023/05/06 06:02:08;;;;;;;3.40;2.03;;;;;;;14.85;nan;98200.75;4996347;28;20203;-74
2023/05/06 06:04:34;;;;;;;2.43;1.90;;;;;;;14.96;nan;98202.53;4996273;28;20219;-73
2023/05/06 06:07:01;;;;;;;4.37;2.10;;;;;;;15.06;nan;98204.56;4996080;28;20234;-73
2023/05/06 06:09:27;;;;;;;3.50;1.97;;;;;;;14.80;nan;98207.88;4995664;28;20211;-73
2023/05/06 06:11:54;;;;;;;2.20;1.97;;;;;;;14.99;nan;98206.59;4996049;28;20230;-73
2023/05/06 06:14:20;;;;;;;2.90;2.23;;;;;;;15.15;nan;98209.25;4996080;28;20215;-73
2023/05/06 06:16:47;;;;;;;3.83;1.90;;;;;;;15.23;nan;98211.53;4995847;28;20231;-73
2023/05/06 06:19:14;;;;;;;3.60;1.87;;;;;;;15.46;nan;98207.88;4995979;28;20211;-73
2023/05/06 06:21:41;;;;;;;6.67;2.10;;;;;;;15.12;nan;98203.59;4995866;28;20211;-73
2023/05/06 06:24:07;;;;;;;2.37;1.60;;;;;;;15.09;nan;98206.75;4995841;28;20203;-73
2023/05/06 06:26:33;;;;;;;2.10;1.90;;;;;;;15.20;nan;98203.97;4995608;28;20227;-73
2023/05/06 06:29:00;;;;;;;4.13;1.87;;;;;;;15.45;nan;98207.09;4995674;28;20212;-73
2023/05/06 06:31:28;;;;;;;2.53;1.60;;;;;;;15.41;nan;98211.31;4995243;28;20234;-73
2023/05/06 06:33:54;;;;;;;1.57;1.47;;;;;;;15.31;nan;98215.66;4995661;28;20213;-73
2023/05/06 06:36:21;;;;;;;3.97;1.70;;;;;;;15.34;nan;98216.00;4995218;28;20722;-73
2023/05/06 06:38:47;;;;;;;2.63;1.60;;;;;;;15.57;nan;98221.22;4995603;28;20211;-74
2023/05/06 06:41:14;;;;;;;2.27;1.77;;;;;;;15.60;nan;98223.38;4995321;28;20212;-73
2023/05/06 06:43:40;;;;;;;1.57;1.47;;;;;;;15.73;nan;98224.88;4995486;28;20211;-73
2023/05/06 06:46:06;;;;;;;2.20;1.40;;;;;;;15.59;nan;98224.44;4995396;28;20239;-73
2023/05/06 06:48:33;;;;;;;3.97;1.70;;;;;;;15.68;nan;98232.84;4996530;28;20214;-73
2023/05/06 06:50:59;;;;;;;3.80;1.97;;;;;;;15.88;nan;98227.78;4995133;28;20227;-73
2023/05/06 06:53:25;;;;;;;2.57;1.70;;;;;;;15.83;nan;98227.72;4995547;28;20210;-73
2023/05/06 06:55:52;;;;;;;2.37;1.80;;;;;;;15.38;nan;98233.22;4995211;28;20598;-73
2023/05/06 06:58:18;;;;;;;5.03;1.80;;;;;;;15.58;nan;98224.69;4994923;28;20213;-73
2023/05/06 07:00:44;;;;;;;1.90;1.70;;;;;;;15.77;nan;98224.16;4994820;28;20226;-73
2023/05/06 07:03:14;;;;;;;2.80;1.80;;;;;;;15.72;nan;98228.63;4994477;28;20593;-73
2023/05/06 07:05:40;;;;;;;2.93;1.60;;;;;;;15.78;nan;98231.13;4994714;28;20721;-73
2023/05/06 07:08:07;;;;;;;2.47;1.67;;;;;;;15.44;nan;98236.81;4994617;28;20789;-73
2023/05/06 07:10:34;;;;;;;3.23;1.97;;;;;;;15.34;nan;98240.13;4994632;28;20211;-73
2023/05/06 07:13:01;;;;;;;2.00;1.80;;;;;;;15.68;nan;98228.31;4994815;28;20259;-73
2023/05/06 07:15:27;;;;;;;2.87;1.80;;;;;;;15.85;nan;98237.13;4994855;28;20227;-73
2023/05/06 07:17:53;;;;;;;3.43;1.93;;;;;;;15.53;nan;98235.31;4994740;28;20207;-73
2023/05/06 07:20:20;;;;;;;2.40;1.93;;;;;;;15.53;nan;98240.69;4994933;28;20254;-73
2023/05/06 07:22:46;;;;;;;2.13;1.80;;;;;;;15.91;nan;98238.81;4994356;28;20219;-73
2023/05/06 07:25:12;;;;;;;3.77;2.00;;;;;;;15.71;nan;98237.72;4994628;28;20231;-73
2023/05/06 07:27:39;;;;;;;2.27;1.80;;;;;;;15.55;nan;98247.41;4994602;28;20203;-73
2023/05/06 07:30:06;;;;;;;2.07;1.87;;;;;;;15.74;nan;98243.41;4994143;28;20220;-73
2023/05/06 07:32:33;;;;;;;2.03;1.90;;;;;;;15.62;nan;98244.56;4994637;28;20211;-73
2023/05/06 07:34:59;;;;;;;2.57;2.23;;;;;;;15.61;nan;98243.75;4994484;28;20218;-73
2023/05/06 07:37:25;;;;;;;3.97;2.37;;;;;;;15.46;nan;98240.84;4994385;28;20211;-74
2023/05/06 07:39:52;;;;;;;2.23;1.90;;;;;;;15.60;nan;98252.06;4994843;28;20207;-73
2023/05/06 07:42:18;;;;;;;2.77;2.30;;;;;;;16.31;nan;98244.69;4994433;28;20203;-73
2023/05/06 07:44:44;;;;;;;3.50;2.00;;;;;;;16.32;nan;98254.34;4994378;28;20240;-73
2023/05/06 07:47:11;;;;;;;2.50;1.90;;;;;;;16.55;nan;98251.44;4994574;28;20237;-73
2023/05/06 07:49:37;;;;;;;3.13;1.90;;;;;;;16.70;nan;98251.59;4994352;28;20211;-73
2023/05/06 07:52:04;;;;;;;3.33;1.70;;;;;;;16.89;nan;98244.81;4993791;28;20232;-73
2023/05/06 07:54:31;;;;;;;1.87;1.40;;;;;;;16.86;nan;98257.91;4994333;28;20235;-73
2023/05/06 07:56:57;;;;;;;3.10;1.47;;;;;;;16.89;nan;98258.25;4994169;28;20230;-73
2023/05/06 07:59:24;;;;;;;2.30;1.40;;;;;;;16.65;nan;98253.44;4993816;28;20216;-73
2023/05/06 08:01:50;;;;;;;1.87;1.40;;;;;;;16.59;nan;98249.88;4993651;28;20667;-73
2023/05/06 08:04:16;;;;;;;2.53;1.50;;;;;;;16.74;nan;98250.03;4993833;28;20211;-73
2023/05/06 08:06:43;;;;;;;3.80;1.50;;;;;;;16.74;nan;98255.38;4993950;28;20233;-73
2023/05/06 08:09:09;;;;;;;1.30;1.20;;;;;;;16.43;nan;98255.31;4993745;28;20225;-74
2023/05/06 08:11:35;;;;;;;2.27;1.10;;;;;;;16.25;nan;98259.13;4993864;28;20233;-74
2023/05/06 08:14:02;;;;;;;2.70;1.30;;;;;;;16.48;nan;98260.75;4993840;28;20227;-74
2023/05/06 08:16:28;;;;;;;1.70;1.20;;;;;;;16.80;nan;98256.25;4993546;28;20231;-74
2023/05/06 08:18:54;;;;;;;1.37;1.27;;;;;;;17.07;nan;98257.06;4993567;28;20578;-74
2023/05/06 08:21:21;;;;;;;2.23;1.10;;;;;;;17.38;nan;98259.72;4993747;28;20586;-74
2023/05/06 08:23:47;;;;;;;1.73;1.30;;;;;;;17.75;nan;98260.59;4993576;28;20207;-73
2023/05/06 08:26:13;;;;;;;1.73;1.40;;;;;;;17.97;nan;98257.75;4993483;28;20227;-73
2023/05/06 08:28:40;;;;;;;2.83;1.60;;;;;;;17.71;nan;98261.34;4993777;28;20219;-74
2023/05/06 08:31:06;;;;;;;2.00;1.40;;;;;;;17.21;nan;98255.56;4993315;28;20661;-74
2023/05/06 08:33:32;;;;;;;2.10;1.57;;;;;;;16.98;nan;98255.91;4993357;28;20578;-73
2023/05/06 08:35:59;;;;;;;2.73;1.63;;;;;;;16.90;nan;98259.88;4993241;28;20725;-73
2023/05/06 08:38:25;;;;;;;1.77;1.30;;;;;;;16.97;nan;98255.06;4993710;28;20210;-73
2023/05/06 08:40:53;;;;;;;3.00;1.70;;;;;;;16.41;nan;98255.56;4994849;28;20210;-73
2023/05/06 08:43:21;;;;;;;2.80;1.53;;;;;;;16.47;nan;98259.13;4997486;28;20578;-74
2023/05/06 08:45:49;;;;;;;3.50;1.10;;;;;;;16.43;nan;98266.06;4997302;28;20234;-74
2023/05/06 08:48:15;;;;;;;2.53;1.40;;;;;;;16.84;nan;98260.88;4997765;28;20207;-73
2023/05/06 08:50:43;;;;;;;2.53;1.30;;;;;;;16.80;nan;98258.94;4997256;28;20219;-73
2023/05/06 08:53:13;;;;;;;2.03;1.30;;;;;;;17.06;nan;98258.13;4997549;28;20222;-73
2023/05/06 08:55:43;;;;;;;2.83;1.37;;;;;;;17.45;nan;98252.31;4996740;28;20736;-73
2023/05/06 08:58:14;;;;;;;2.40;1.70;;;;;;;17.78;nan;98268.13;4996941;28;20690;-73
2023/05/06 09:00:41;;;;;;;2.67;1.60;;;;;;;18.05;nan;98260.75;4996968;28;20230;-73
2023/05/06 09:03:07;;;;;;;1.60;1.50;;;;;;;17.96;nan;98262.31;4979773;28;20215;-73
2023/05/06 09:05:33;;;;;;;1.80;1.50;;;;;;;18.37;nan;98269.53;4997147;28;20227;-73
2023/05/06 09:08:00;;;;;;;1.73;1.40;;;;;;;18.10;nan;98259.97;4996900;28;20693;-73
2023/05/06 09:10:32;;;;;;;2.57;1.20;;;;;;;18.48;nan;98257.75;4996909;28;20191;-73
2023/05/06 09:12:58;;;;;;;1.60;1.30;;;;;;;18.32;nan;98268.69;4997046;28;20187;-74
2023/05/06 09:15:26;;;;;;;1.30;1.20;;;;;;;18.41;nan;98267.94;4996960;28;20243;-73
2023/05/06 09:17:54;;;;;;;2.80;1.43;;;;;;;18.16;nan;98265.13;4997015;28;20262;-74
2023/05/06 09:20:20;;;;;;;2.10;1.30;;;;;;;18.68;nan;98263.19;4997944;28;20207;-74
2023/05/06 09:22:47;;;;;;;1.70;1.43;;;;;;;17.86;nan;98258.75;4996999;28;20208;-73
2023/05/06 09:25:13;;;;;;;2.93;1.33;;;;;;;17.98;nan;98260.19;4996884;28;20258;-73
2023/05/06 09:27:40;;;;;;;2.33;1.20;;;;;;;17.88;nan;98260.13;4996799;28;20213;-74
2023/05/06 09:30:08;;;;;;;2.40;1.10;;;;;;;17.82;nan;98258.47;4996858;28;20203;-74
2023/05/06 09:32:35;;;;;;;2.27;1.30;;;;;;;17.80;nan;98254.41;4996649;28;20266;-73
2023/05/06 09:35:02;;;;;;;2.13;1.30;;;;;;;18.00;nan;98254.56;4996711;28;20211;-73
2023/05/06 09:37:29;;;;;;;1.30;1.20;;;;;;;18.31;nan;98256.28;4996733;28;20210;-73
2023/05/06 09:39:57;;;;;;;2.00;1.10;;;;;;;18.13;nan;98252.19;4996360;28;20543;-73
2023/05/06 09:42:28;;;;;;;1.40;1.17;;;;;;;18.30;nan;98250.13;4996235;28;20215;-73
2023/05/06 09:44:56;;;;;;;2.20;1.10;;;;;;;18.80;nan;98244.09;4996321;28;20196;-73
2023/05/06 09:47:25;;;;;;;1.00;1.00;;;;;;;18.91;nan;98240.34;4996484;28;20211;-73
2023/05/06 09:49:51;;;;;;;1.80;1.20;;;;;;;18.84;nan;98237.91;4996452;28;20299;-74
2023/05/06 09:52:19;;;;;;;1.10;1.03;;;;;;;18.72;nan;98248.13;4995592;28;20219;-73
2023/05/06 09:54:46;;;;;;;1.37;1.27;;;;;;;18.42;nan;98248.00;4996307;28;20578;-74
2023/05/06 09:57:16;;;;;;;2.90;1.10;;;;;;;18.48;nan;98241.59;4995739;28;20231;-74
2023/05/06 09:59:43;;;;;;;1.40;1.30;;;;;;;19.20;nan;98234.16;4996163;28;20298;-74
2023/05/06 10:02:12;;;;;;;2.03;1.17;;;;;;;19.32;nan;98226.63;4996149;28;20203;-74
2023/05/06 10:04:41;;;;;;;2.03;1.13;;;;;;;19.59;nan;98227.16;4996255;28;20262;-74
2023/05/06 10:07:11;;;;;;;2.37;1.03;;;;;;;19.46;nan;98226.91;4996033;28;20255;-74
2023/05/06 10:09:39;;;;;;;1.10;1.10;;;;;;;19.24;nan;98224.50;4995729;28;20215;-73
2023/05/06 10:12:10;;;;;;;1.37;1.27;;;;;;;18.72;nan;98217.66;4995537;28;20227;-74
2023/05/06 10:14:37;;;;;;;2.77;1.20;;;;;;;19.30;nan;98209.13;4995909;28;20215;-74
2023/05/06 10:17:07;;;;;;;2.27;1.20;;;;;;;19.36;nan;98218.84;4995947;28;20231;-74
2023/05/06 10:19:34;;;;;;;2.27;1.20;;;;;;;19.26;nan;98210.72;4995485;28;20191;-74
2023/05/06 10:22:16;;;;;;;1.20;1.10;;;;;;;19.43;nan;98214.78;4995412;28;20717;-74
2023/05/06 10:24:55;;;;;;;1.50;1.40;;;;;;;19.80;nan;98206.34;4995772;28;20200;-74
2023/05/06 10:27:25;;;;;;;2.03;1.30;;;;;;;19.77;nan;98202.28;4995566;28;20195;-74
2023/05/06 10:29:55;;;;;;;3.43;1.47;;;;;;;19.90;nan;98200.91;4995394;28;20745;-74
2023/05/06 10:32:21;;;;;;;1.83;1.20;;;;;;;19.98;nan;98202.25;4978510;28;20249;-74
2023/05/06 10:34:54;;;;;;;2.00;1.00;;;;;;;19.70;nan;98195.56;4995601;28;20257;-74
2023/05/06 10:37:24;;;;;;;1.17;1.07;;;;;;;20.22;nan;98195.16;4995986;28;20209;-74
2023/05/06 10:39:53;;;;;;;1.23;1.10;;;;;;;20.32;nan;98197.81;4978425;28;20653;-74
2023/05/06 10:42:20;;;;;;;1.20;1.10;;;;;;;20.54;nan;98196.34;4995521;28;20203;-74
2023/05/06 10:44:57;;;;;;;1.47;1.17;;;;;;;20.41;nan;98196.97;4995089;28;20670;-73
2023/05/06 10:47:23;;;;;;;1.87;1.10;;;;;;;19.95;nan;98192.00;4995348;28;20207;-73
2023/05/06 10:50:18;;;;;;;1.17;1.00;;;;;;;20.30;nan;98184.56;4995109;28;20204;-73
2023/05/06 10:52:45;;;;;;;1.80;1.07;;;;;;;20.14;nan;98182.22;4996079;28;20669;-73
2023/05/06 10:55:44;;;;;;;1.13;0.97;;;;;;;20.06;nan;98177.38;4995195;28;20238;-73
2023/05/06 10:58:10;;;;;;;1.20;1.10;;;;;;;20.20;nan;98181.94;4951533;28;20219;-73
2023/05/06 11:00:37;;;;;;;1.97;1.10;;;;;;;20.21;nan;98174.66;4994905;28;20207;-73
2023/05/06 11:03:09;;;;;;;1.57;1.33;;;;;;;19.87;nan;98165.56;4994310;28;20254;-73
2023/05/06 11:05:50;;;;;;;1.63;1.30;;;;;;;19.64;nan;98169.69;4994718;28;20239;-74
2023/05/06 11:08:22;;;;;;;1.63;1.23;;;;;;;18.26;nan;98167.44;4994599;28;20219;-74
2023/05/06 11:10:49;;;;;;;1.30;1.13;;;;;;;18.70;nan;98164.09;4994561;28;20207;-73
2023/05/06 11:13:24;;;;;;;1.70;1.10;;;;;;;18.79;nan;98167.06;4994823;28;20207;-74
2023/05/06 11:15:52;;;;;;;1.73;1.03;;;;;;;19.27;nan;98163.84;4994782;28;20293;-73
2023/05/06 11:18:25;;;;;;;1.33;1.23;;;;;;;19.53;nan;98162.69;4994395;28;20667;-73
2023/05/06 11:21:10;;;;;;;1.37;1.27;;;;;;;19.55;nan;98161.34;4994754;28;20246;-73
2023/05/06 11:23:42;;;;;;;1.30;1.17;;;;;;;19.86;nan;98161.25;4994288;28;20643;-73
2023/05/06 11:26:09;;;;;;;2.13;1.00;;;;;;;19.77;nan;98163.72;4994401;28;20224;-73
2023/05/06 11:28:36;;;;;;;1.90;1.17;;;;;;;19.52;nan;98156.53;4994124;28;20725;-73
2023/05/06 11:31:02;;;;;;;1.50;1.40;;;;;;;18.98;nan;98154.66;4994113;28;20207;-73
2023/05/06 11:33:32;;;;;;;1.47;1.27;;;;;;;19.04;nan;98159.78;4994353;28;20219;-73
2023/05/06 11:36:03;;;;;;;2.27;1.10;;;;;;;19.47;nan;98158.41;4994456;28;20629;-74
2023/05/06 11:38:43;;;;;;;1.97;1.30;;;;;;;19.91;nan;98158.53;4993959;28;20689;-73
2023/05/06 11:41:09;;;;;;;1.17;1.10;;;;;;;19.72;nan;98155.66;4993936;28;20199;-74
2023/05/06 11:43:35;;;;;;;2.47;1.30;;;;;;;19.75;nan;98157.78;4994071;28;20207;-74
2023/05/06 11:46:02;;;;;;;1.97;1.43;;;;;;;19.46;nan;98144.09;4994007;28;20227;-74
2023/05/06 11:48:28;;;;;;;1.67;1.30;;;;;;;19.57;nan;98154.91;4994263;28;20257;-74
2023/05/06 11:50:55;;;;;;;3.63;1.60;;;;;;;19.50;nan;98149.78;4994186;28;20211;-74
2023/05/06 11:53:23;;;;;;;2.17;1.17;;;;;;;19.72;nan;98146.75;4994308;28;20203;-73